createdAt,value
2019-03-03T00:02:14.756Z,99855.98
2019-03-03T00:04:42.486Z,99860.70
2019-03-03T00:07:10.134Z,99852.66
2019-03-03T00:09:37.789Z,99858.09
2019-03-03T00:12:05.439Z,99853.69
2019-03-03T00:14:33.091Z,99859.45
2019-03-03T00:17:00.750Z,99853.32
2019-03-03T00:19:28.395Z,99847.34
2019-03-03T00:21:56.039Z,99851.34
2019-03-03T00:24:23.686Z,99853.69
2019-03-03T00:26:51.339Z,99841.06
2019-03-03T00:29:18.989Z,99842.02
2019-03-03T00:31:46.647Z,99840.63
2019-03-03T00:34:14.302Z,99838.42
2019-03-03T00:36:47.289Z,99834.75
2019-03-03T00:39:24.514Z,99827.52
2019-03-03T00:42:05.927Z,99826.72
2019-03-03T00:44:45.985Z,99817.63
2019-03-03T00:47:20.054Z,99814.65
2019-03-03T00:49:56.947Z,99821.33
2019-03-03T00:52:32.384Z,99815.92
2019-03-03T00:55:10.695Z,99813.54
2019-03-03T00:57:45.931Z,99827.70
2019-03-03T01:00:18.831Z,99818.89
2019-03-03T01:02:55.868Z,99819.27
2019-03-03T01:05:32.162Z,99811.78
2019-03-03T01:08:05.124Z,99803.70
2019-03-03T01:10:46.757Z,99808.14
2019-03-03T01:13:25.557Z,99809.09
2019-03-03T01:15:58.480Z,99798.53
2019-03-03T01:18:35.228Z,99809.30
2019-03-03T01:21:09.347Z,99803.36
2019-03-03T01:23:46.523Z,99807.56
2019-03-03T01:26:14.168Z,99797.76
2019-03-03T01:28:41.840Z,99791.91
2019-03-03T01:31:09.487Z,99791.47
2019-03-03T01:33:37.240Z,99786.40
2019-03-03T01:36:04.894Z,99779.84
2019-03-03T01:38:32.538Z,99785.09
2019-03-03T01:41:00.191Z,99783.36
2019-03-03T01:43:27.854Z,99788.37
2019-03-03T01:45:55.518Z,99786.95
2019-03-03T01:48:23.163Z,99781.49
2019-03-03T01:50:50.888Z,99780.20
2019-03-03T01:53:18.526Z,99783.89
2019-03-03T01:55:46.188Z,99785.77
2019-03-03T01:58:13.840Z,99783.23
2019-03-03T02:00:41.486Z,99781.05
2019-03-03T02:03:09.311Z,99775.91
2019-03-03T02:08:03.576Z,99772.69
2019-03-03T02:10:31.303Z,99774.97
2019-03-03T02:12:58.943Z,99765.39
2019-03-03T02:15:26.609Z,99762.03
2019-03-03T02:17:54.319Z,99756.38
2019-03-03T02:20:21.978Z,99760.48
2019-03-03T02:22:49.648Z,99757.34
2019-03-03T02:25:17.333Z,99757.06
2019-03-03T02:27:44.970Z,99755.31
2019-03-03T02:30:12.619Z,99755.17
2019-03-03T02:32:40.275Z,99745.27
2019-03-03T02:35:07.946Z,99753.39
2019-03-03T02:37:35.591Z,99745.66
2019-03-03T02:40:03.252Z,99747.44
2019-03-03T02:42:30.894Z,99740.94
2019-03-03T02:44:58.546Z,99737.45
2019-03-03T02:47:26.181Z,99741.98
2019-03-03T02:49:53.828Z,99741.25
2019-03-03T02:52:21.464Z,99738.55
2019-03-03T02:54:49.129Z,99740.12
2019-03-03T02:57:16.786Z,99735.91
2019-03-03T02:59:44.423Z,99738.75
2019-03-03T03:02:26.867Z,99731.48
2019-03-03T03:04:54.509Z,99731.70
2019-03-03T03:07:28.924Z,99728.64
2019-03-03T03:10:16.533Z,99728.70
2019-03-03T03:12:52.526Z,99730.48
2019-03-03T03:15:25.340Z,99732.11
2019-03-03T03:17:58.256Z,99735.70
2019-03-03T03:20:49.986Z,99726.95
2019-03-03T03:23:24.121Z,99724.17
2019-03-03T03:26:11.775Z,99722.59
2019-03-03T03:28:52.421Z,99725.78
2019-03-03T03:31:26.335Z,99722.75
2019-03-03T03:34:00.358Z,99728.45
2019-03-03T03:36:42.089Z,99728.38
2019-03-03T03:39:18.702Z,99724.97
2019-03-03T03:41:55.182Z,99732.19
2019-03-03T03:44:41.861Z,99721.92
2019-03-03T03:47:19.394Z,99734.02
2019-03-03T03:49:53.215Z,99727.70
2019-03-03T03:52:29.459Z,99723.48
2019-03-03T03:55:12.754Z,99714.98
2019-03-03T03:57:48.636Z,99719.27
2019-03-03T04:00:36.261Z,99710.23
2019-03-03T04:03:24.916Z,99711.37
2019-03-03T04:06:02.315Z,99718.31
2019-03-03T04:08:34.880Z,99701.36
2019-03-03T04:11:07.641Z,99711.60
2019-03-03T04:13:44.769Z,99712.16
2019-03-03T04:16:18.673Z,99715.62
2019-03-03T04:18:54.411Z,99711.89
2019-03-03T04:21:33.755Z,99711.69
2019-03-03T04:24:06.663Z,99704.36
2019-03-03T04:26:44.754Z,99703.87
2019-03-03T04:29:19.162Z,99703.36
2019-03-03T04:31:52.098Z,99699.31
2019-03-03T04:34:26.364Z,99693.48
2019-03-03T04:37:01.424Z,99689.73
2019-03-03T04:39:35.816Z,99684.57
2019-03-03T04:42:14.549Z,99682.26
2019-03-03T04:44:54.286Z,99676.59
2019-03-03T04:47:27.596Z,99680.03
2019-03-03T04:50:04.365Z,99672.28
2019-03-03T04:52:44.632Z,99677.75
2019-03-03T04:55:17.612Z,99667.66
2019-03-03T04:57:56.340Z,99667.59
2019-03-03T05:00:34.342Z,99671.30
2019-03-03T05:03:10.807Z,99676.19
2019-03-03T05:05:46.351Z,99672.59
2019-03-03T05:08:25.479Z,99676.17
2019-03-03T05:11:10.656Z,99676.93
2019-03-03T05:13:44.150Z,99676.09
2019-03-03T05:16:17.015Z,99665.20
2019-03-03T05:18:56.061Z,99668.44
2019-03-03T05:21:23.707Z,99662.50
2019-03-03T05:23:51.360Z,99662.80
2019-03-03T05:26:18.991Z,99661.51
2019-03-03T05:28:46.632Z,99659.88
2019-03-03T05:31:14.266Z,99660.05
2019-03-03T05:33:41.914Z,99660.52
2019-03-03T05:36:09.549Z,99667.31
2019-03-03T05:38:37.187Z,99663.88
2019-03-03T05:41:04.835Z,99663.16
2019-03-03T05:43:32.470Z,99660.58
2019-03-03T05:46:00.109Z,99663.09
2019-03-03T05:48:27.747Z,99662.33
2019-03-03T05:50:55.392Z,99655.11
2019-03-03T05:53:23.031Z,99656.11
2019-03-03T05:55:50.669Z,99647.86
2019-03-03T05:58:18.304Z,99639.92
2019-03-03T06:00:45.931Z,99638.49
2019-03-03T06:03:13.657Z,99629.66
2019-03-03T06:05:41.323Z,99618.50
2019-03-03T06:08:08.954Z,99613.73
2019-03-03T06:10:36.586Z,99634.86
2019-03-03T06:13:04.229Z,99627.94
2019-03-03T06:15:31.856Z,99628.16
2019-03-03T06:17:59.492Z,99633.86
2019-03-03T06:20:27.877Z,99622.77
2019-03-03T06:22:55.672Z,99621.84
2019-03-03T06:25:23.310Z,99628.45
2019-03-03T06:27:50.948Z,99648.70
2019-03-03T06:30:18.589Z,99642.66
2019-03-03T06:32:46.242Z,99638.92
2019-03-03T06:35:13.863Z,99638.27
2019-03-03T06:37:41.507Z,99631.74
2019-03-03T06:40:09.146Z,99637.51
2019-03-03T06:42:36.798Z,99637.08
2019-03-03T06:45:04.426Z,99641.34
2019-03-03T06:47:32.068Z,99646.20
2019-03-03T06:49:59.711Z,99648.80
2019-03-03T06:52:27.354Z,99638.65
2019-03-03T06:54:55.083Z,99637.31
2019-03-03T06:57:22.718Z,99637.77
2019-03-03T06:59:50.349Z,99634.27
2019-03-03T07:02:17.983Z,99638.19
2019-03-03T07:04:45.633Z,99646.23
2019-03-03T07:07:13.279Z,99641.66
2019-03-03T07:09:40.932Z,99647.23
2019-03-03T07:12:08.584Z,99654.09
2019-03-03T07:14:36.229Z,99651.57
2019-03-03T07:17:03.869Z,99648.22
2019-03-03T07:19:31.503Z,99643.38
2019-03-03T07:21:59.162Z,99645.89
2019-03-03T07:24:26.822Z,99645.99
2019-03-03T07:26:54.488Z,99626.08
2019-03-03T07:29:22.135Z,99643.86
2019-03-03T07:31:49.762Z,99633.98
2019-03-03T07:34:17.407Z,99635.22
2019-03-03T07:36:45.065Z,99640.34
2019-03-03T07:39:12.780Z,99639.88
2019-03-03T07:41:40.499Z,99640.77
2019-03-03T07:44:08.139Z,99646.02
2019-03-03T07:46:35.807Z,99659.73
2019-03-03T07:49:03.447Z,99655.12
2019-03-03T07:51:31.087Z,99652.81
2019-03-03T07:53:58.745Z,99655.69
2019-03-03T07:56:26.392Z,99659.62
2019-03-03T07:58:54.036Z,99649.19
2019-03-03T08:01:21.761Z,99647.70
2019-03-03T08:03:49.466Z,99645.44
2019-03-03T08:06:17.113Z,99650.02
2019-03-03T08:08:44.747Z,99650.16
2019-03-03T08:11:12.422Z,99651.39
2019-03-03T08:13:40.086Z,99648.81
2019-03-03T08:16:07.738Z,99646.87
2019-03-03T08:18:35.436Z,99646.88
2019-03-03T08:21:03.083Z,99648.25
2019-03-03T08:23:30.726Z,99650.14
2019-03-03T08:25:58.379Z,99641.55
2019-03-03T08:28:26.023Z,99642.05
2019-03-03T08:30:53.685Z,99637.33
2019-03-03T08:33:21.358Z,99631.23
2019-03-03T08:35:49.011Z,99642.13
2019-03-03T08:38:16.656Z,99639.04
2019-03-03T08:40:44.296Z,99634.37
2019-03-03T08:43:17.265Z,99631.11
2019-03-03T08:45:53.096Z,99629.84
2019-03-03T08:48:40.913Z,99628.30
2019-03-03T08:51:18.869Z,99624.68
2019-03-03T08:53:56.058Z,99625.67
2019-03-03T08:56:43.555Z,99630.08
2019-03-03T08:59:21.401Z,99629.35
2019-03-03T09:01:56.727Z,99626.83
2019-03-03T09:04:29.668Z,99616.64
2019-03-03T09:07:04.015Z,99620.36
2019-03-03T09:09:38.250Z,99624.13
2019-03-03T09:12:11.164Z,99629.66
2019-03-03T09:14:51.487Z,99628.02
2019-03-03T09:17:27.904Z,99618.11
2019-03-03T09:20:06.058Z,99619.59
2019-03-03T09:22:45.407Z,99615.99
2019-03-03T09:25:28.019Z,99617.59
2019-03-03T09:28:04.591Z,99622.21
2019-03-03T09:30:56.345Z,99622.66
2019-03-03T09:33:39.440Z,99630.41
2019-03-03T09:36:32.084Z,99623.27
2019-03-03T09:39:09.683Z,99634.39
2019-03-03T09:41:47.170Z,99626.30
2019-03-03T09:44:23.239Z,99632.25
2019-03-03T09:47:00.111Z,99627.67
2019-03-03T09:49:33.080Z,99635.06
2019-03-03T09:52:09.970Z,99630.75
2019-03-03T09:54:54.023Z,99633.31
2019-03-03T09:57:33.462Z,99632.02
2019-03-03T10:00:09.114Z,99629.73
2019-03-03T10:02:42.384Z,99631.00
2019-03-03T10:05:15.338Z,99630.69
2019-03-03T10:07:51.252Z,99635.02
2019-03-03T10:10:24.863Z,99637.27
2019-03-03T10:13:02.653Z,99628.16
2019-03-03T10:15:36.051Z,99624.45
2019-03-03T10:18:13.238Z,99618.29
2019-03-03T10:20:59.926Z,99620.91
2019-03-03T10:23:39.284Z,99621.48
2019-03-03T10:26:19.553Z,99616.33
2019-03-03T10:28:52.410Z,99609.45
2019-03-03T10:31:41.102Z,99614.58
2019-03-03T10:34:20.135Z,99611.34
2019-03-03T10:36:54.928Z,99599.35
2019-03-03T10:39:27.007Z,99612.48
2019-03-03T10:42:07.888Z,99603.21
2019-03-03T10:44:43.934Z,99600.28
2019-03-03T10:47:18.062Z,99595.31
2019-03-03T10:49:53.410Z,99587.05
2019-03-03T10:52:30.091Z,99593.41
2019-03-03T10:55:07.060Z,99588.66
2019-03-03T10:57:45.570Z,99588.34
2019-03-03T11:00:25.905Z,99584.62
2019-03-03T11:03:14.390Z,99585.23
2019-03-03T11:05:47.281Z,99582.52
2019-03-03T11:08:33.071Z,99573.10
2019-03-03T11:11:11.556Z,99572.14
2019-03-03T11:13:47.759Z,99567.80
2019-03-03T11:16:26.131Z,99578.23
2019-03-03T11:19:02.002Z,99572.91
2019-03-03T11:21:35.042Z,99578.73
2019-03-03T11:24:17.876Z,99574.78
2019-03-03T11:27:06.553Z,99572.22
2019-03-03T11:29:40.361Z,99557.73
2019-03-03T11:32:15.188Z,99567.22
2019-03-03T11:34:56.779Z,99561.41
2019-03-03T11:37:29.731Z,99570.08
2019-03-03T11:40:08.229Z,99558.64
2019-03-03T11:42:40.456Z,99551.80
2019-03-03T11:45:15.077Z,99553.73
2019-03-03T11:47:50.654Z,99557.16
2019-03-03T11:50:26.282Z,99551.61
2019-03-03T11:53:01.026Z,99555.98
2019-03-03T11:55:37.371Z,99546.33
2019-03-03T11:58:12.235Z,99542.98
2019-03-03T12:01:01.830Z,99534.57
2019-03-03T12:03:37.334Z,99541.45
2019-03-03T12:06:14.159Z,99531.10
2019-03-03T12:08:50.377Z,99524.55
2019-03-03T12:11:23.210Z,99520.58
2019-03-03T12:13:57.056Z,99517.14
2019-03-03T12:16:30.755Z,99529.85
2019-03-03T12:19:07.037Z,99511.30
2019-03-03T12:21:42.978Z,99503.62
2019-03-03T12:24:17.001Z,99492.08
2019-03-03T12:26:59.903Z,99491.80
2019-03-03T12:29:34.229Z,99502.28
2019-03-03T12:32:10.530Z,99489.70
2019-03-03T12:34:45.041Z,99483.27
2019-03-03T12:39:46.250Z,99461.61
2019-03-03T12:42:23.195Z,99473.41
2019-03-03T12:44:56.052Z,99466.89
2019-03-03T12:49:59.079Z,99467.74
2019-03-03T12:52:35.010Z,99461.75
2019-03-03T12:55:07.991Z,99465.19
2019-03-03T13:02:43.293Z,99465.95
2019-03-03T13:07:43.213Z,99457.20
2019-03-03T13:10:23.980Z,99466.66
2019-03-03T13:12:59.521Z,99455.41
2019-03-03T13:15:38.262Z,99454.55
2019-03-03T13:18:16.251Z,99455.84
2019-03-03T13:20:53.340Z,99457.61
2019-03-03T13:23:26.633Z,99458.81
2019-03-03T13:25:59.604Z,99457.95
2019-03-03T13:28:34.143Z,99449.31
2019-03-03T13:31:08.979Z,99444.92
2019-03-03T13:34:00.652Z,99444.94
2019-03-03T13:36:37.269Z,99445.39
2019-03-03T13:39:18.921Z,99438.07
2019-03-03T13:41:57.796Z,99435.84
2019-03-03T13:44:25.449Z,99435.76
2019-03-03T13:46:53.081Z,99431.07
2019-03-03T13:49:20.745Z,99427.61
2019-03-03T13:51:48.386Z,99413.28
2019-03-03T13:54:16.026Z,99424.57
2019-03-03T13:56:43.666Z,99429.27
2019-03-03T13:59:11.308Z,99424.47
2019-03-03T14:01:38.965Z,99434.40
2019-03-03T14:04:06.617Z,99425.26
2019-03-03T14:06:34.267Z,99428.67
2019-03-03T14:09:01.918Z,99403.55
2019-03-03T14:11:29.567Z,99412.56
2019-03-03T14:13:57.204Z,99419.02
2019-03-03T14:16:24.846Z,99417.31
2019-03-03T14:18:52.496Z,99420.28
2019-03-03T14:21:20.142Z,99422.34
2019-03-03T14:23:49.443Z,99415.86
2019-03-03T14:26:17.331Z,99410.23
2019-03-03T14:28:45.000Z,99401.98
2019-03-03T14:31:12.652Z,99400.61
2019-03-03T14:33:40.295Z,99392.86
2019-03-03T14:36:07.983Z,99393.67
2019-03-03T14:38:35.622Z,99409.25
2019-03-03T14:41:03.269Z,99417.45
2019-03-03T14:43:30.921Z,99407.03
2019-03-03T14:45:58.580Z,99400.66
2019-03-03T14:50:52.143Z,99390.78
2019-03-03T14:53:19.807Z,99389.84
2019-03-03T14:55:47.457Z,99390.71
2019-03-03T14:58:15.102Z,99390.73
2019-03-03T15:00:42.761Z,99389.86
2019-03-03T15:03:10.394Z,99389.86
2019-03-03T15:08:03.958Z,99380.83
2019-03-03T15:10:31.602Z,99380.30
2019-03-03T15:12:59.252Z,99380.39
2019-03-03T15:15:26.895Z,99364.84
2019-03-03T15:20:20.520Z,99360.09
2019-03-03T15:22:48.164Z,99361.45
2019-03-03T15:25:15.802Z,99356.58
2019-03-03T15:27:43.453Z,99355.77
2019-03-03T15:30:11.079Z,99349.22
2019-03-03T15:32:38.723Z,99351.83
2019-03-03T15:35:06.384Z,99355.30
2019-03-03T15:37:34.037Z,99358.67
2019-03-03T15:40:01.674Z,99349.59
2019-03-03T15:42:29.314Z,99354.32
2019-03-03T15:44:56.961Z,99352.19
2019-03-03T15:49:50.527Z,99350.90
2019-03-03T15:52:18.192Z,99349.52
2019-03-03T15:54:45.820Z,99355.51
2019-03-03T15:57:13.795Z,99362.77
2019-03-03T15:59:41.478Z,99352.50
2019-03-03T16:02:09.143Z,99348.62
2019-03-03T16:04:36.790Z,99351.17
2019-03-03T16:07:04.516Z,99346.86
2019-03-03T16:09:32.163Z,99343.33
2019-03-03T16:11:59.809Z,99343.30
2019-03-03T16:14:27.455Z,99338.13
2019-03-03T16:16:55.103Z,99333.79
2019-03-03T16:19:22.747Z,99327.73
2019-03-03T16:21:50.393Z,99333.80
2019-03-03T16:24:18.044Z,99334.56
2019-03-03T16:26:45.781Z,99328.91
2019-03-03T16:29:13.402Z,99332.36
2019-03-03T16:31:41.056Z,99328.47
2019-03-03T16:34:08.695Z,99324.54
2019-03-03T16:36:36.332Z,99329.30
2019-03-03T16:39:04.454Z,99327.40
2019-03-03T16:41:32.107Z,99321.74
2019-03-03T16:43:59.764Z,99309.77
2019-03-03T16:46:27.415Z,99316.59
2019-03-03T16:48:55.076Z,99314.95
2019-03-03T16:51:22.737Z,99319.58
2019-03-03T16:53:50.369Z,99316.23
2019-03-03T16:56:18.055Z,99323.48
2019-03-03T16:58:45.694Z,99304.52
2019-03-03T17:01:13.340Z,99313.98
2019-03-03T17:03:40.987Z,99311.73
2019-03-03T17:06:08.641Z,99318.21
2019-03-03T17:08:36.277Z,99310.46
2019-03-03T17:11:03.971Z,99308.67
2019-03-03T17:13:31.601Z,99314.80
2019-03-03T17:15:59.293Z,99309.14
2019-03-03T17:18:26.934Z,99311.62
2019-03-03T17:20:54.573Z,99313.84
2019-03-03T17:23:22.228Z,99313.45
2019-03-03T17:25:49.869Z,99316.46
2019-03-03T17:28:17.509Z,99306.91
2019-03-03T17:30:45.147Z,99312.58
2019-03-03T17:33:12.808Z,99310.41
2019-03-03T17:35:40.452Z,99310.67
2019-03-03T17:38:08.103Z,99307.30
2019-03-03T17:40:35.755Z,99304.66
2019-03-03T17:43:03.406Z,99297.41
2019-03-03T17:45:31.051Z,99293.05
2019-03-03T17:47:58.715Z,99289.55
2019-03-03T17:50:26.346Z,99297.66
2019-03-03T17:52:54.000Z,99288.17
2019-03-03T17:55:21.661Z,99283.39
2019-03-03T17:57:49.313Z,99279.11
2019-03-03T18:00:17.141Z,99277.31
2019-03-03T18:02:44.783Z,99279.51
2019-03-03T18:05:12.433Z,99281.17
2019-03-03T18:07:40.118Z,99270.34
2019-03-03T18:10:07.913Z,99263.39
2019-03-03T18:12:35.543Z,99254.86
2019-03-03T18:15:03.254Z,99260.80
2019-03-03T18:17:30.899Z,99256.48
2019-03-03T18:19:58.538Z,99256.45
2019-03-03T18:22:26.182Z,99254.31
2019-03-03T18:24:53.847Z,99253.52
2019-03-03T18:27:21.512Z,99248.72
2019-03-03T18:29:49.156Z,99259.85
2019-03-03T18:32:16.806Z,99261.96
2019-03-03T18:34:44.438Z,99269.24
2019-03-03T18:37:13.226Z,99261.51
2019-03-03T18:39:41.038Z,99268.70
2019-03-03T18:42:08.676Z,99264.37
2019-03-03T18:44:36.305Z,99265.78
2019-03-03T18:47:03.947Z,99272.67
2019-03-03T18:49:31.594Z,99267.47
2019-03-03T18:51:59.246Z,99270.95
2019-03-03T18:54:26.898Z,99262.37
2019-03-03T18:56:54.538Z,99267.95
2019-03-03T18:59:22.174Z,99261.96
2019-03-03T19:01:49.821Z,99261.00
2019-03-03T19:04:17.463Z,99261.45
2019-03-03T19:06:45.110Z,99259.65
2019-03-03T19:09:17.628Z,99251.41
2019-03-03T19:11:45.312Z,99255.65
2019-03-03T19:14:12.943Z,99254.92
2019-03-03T19:16:40.611Z,99253.18
2019-03-03T19:19:08.251Z,99251.89
2019-03-03T19:21:35.899Z,99261.48
2019-03-03T19:24:03.575Z,99255.49
2019-03-03T19:26:31.215Z,99255.97
2019-03-03T19:28:58.860Z,99253.75
2019-03-03T19:31:26.494Z,99250.59
2019-03-03T19:33:54.139Z,99247.55
2019-03-03T19:36:21.780Z,99242.44
2019-03-03T19:38:49.428Z,99238.53
2019-03-03T19:41:17.073Z,99235.02
2019-03-03T19:43:44.718Z,99232.97
2019-03-03T19:46:12.350Z,99229.00
2019-03-03T19:48:40.013Z,99229.53
2019-03-03T19:51:07.743Z,99228.21
2019-03-03T19:53:35.479Z,99230.89
2019-03-03T19:56:03.119Z,99228.33
2019-03-03T19:58:30.777Z,99221.77
2019-03-03T20:00:58.502Z,99227.70
2019-03-03T20:03:26.144Z,99213.39
2019-03-03T20:05:53.784Z,99213.84
2019-03-03T20:08:21.428Z,99207.97
2019-03-03T20:10:49.088Z,99206.88
2019-03-03T20:13:16.727Z,99206.88
2019-03-03T20:15:44.379Z,99203.84
2019-03-03T20:18:12.040Z,99196.53
2019-03-03T20:20:39.674Z,99202.97
2019-03-03T20:23:07.323Z,99208.81
2019-03-03T20:25:34.968Z,99208.02
2019-03-03T20:28:02.619Z,99209.69
2019-03-03T20:30:30.255Z,99203.98
2019-03-03T20:32:57.907Z,99200.91
2019-03-03T20:35:25.539Z,99195.74
2019-03-03T20:37:53.193Z,99197.66
2019-03-03T20:40:20.882Z,99198.44
2019-03-03T20:42:48.539Z,99194.45
2019-03-03T20:45:16.174Z,99186.27
2019-03-03T20:47:43.822Z,99180.53
2019-03-03T20:50:11.462Z,99172.72
2019-03-03T20:52:39.110Z,99160.09
2019-03-03T20:55:06.754Z,99160.52
2019-03-03T20:57:36.390Z,99146.87
2019-03-03T21:00:03.751Z,99137.84
2019-03-03T21:02:31.408Z,99123.87
2019-03-03T21:04:59.210Z,99137.45
2019-03-03T21:07:27.018Z,99129.41
2019-03-03T21:09:54.749Z,99126.38
2019-03-03T21:12:22.398Z,99123.48
2019-03-03T21:14:50.054Z,99126.58
2019-03-03T21:17:17.695Z,99125.96
2019-03-03T21:19:45.429Z,99125.48
2019-03-03T21:22:13.084Z,99124.09
2019-03-03T21:24:40.875Z,99123.31
2019-03-03T21:27:08.520Z,99113.03
2019-03-03T21:29:36.154Z,99110.05
2019-03-03T21:32:03.804Z,99105.57
2019-03-03T21:34:31.453Z,99113.65
2019-03-03T21:36:59.187Z,99100.33
2019-03-03T21:39:26.843Z,99094.20
2019-03-03T21:41:54.490Z,99090.58
2019-03-03T21:44:22.156Z,99089.83
2019-03-03T22:01:26.034Z,99069.02
2019-03-03T22:03:53.672Z,99063.42
2019-03-03T22:06:21.315Z,99057.25
2019-03-03T22:08:48.951Z,99058.56
2019-03-03T22:11:16.630Z,99051.58
2019-03-03T22:13:44.318Z,99047.67
2019-03-03T22:16:12.053Z,99042.06
2019-03-03T22:18:39.690Z,99043.44
2019-03-03T22:21:07.322Z,99038.70
2019-03-03T22:23:34.968Z,99031.66
2019-03-03T22:26:02.611Z,99030.89
2019-03-03T22:28:30.265Z,99031.48
2019-03-03T22:30:57.922Z,99019.81
2019-03-03T22:33:25.571Z,99016.74
2019-03-03T22:35:53.215Z,99012.81
2019-03-03T22:38:21.304Z,99011.88
2019-03-03T22:40:49.094Z,99005.98
2019-03-03T22:43:16.810Z,99003.30
2019-03-03T22:45:44.517Z,99005.53
2019-03-03T22:48:12.177Z,99006.99
2019-03-03T22:50:39.849Z,99016.85
2019-03-03T22:53:07.492Z,99020.22
2019-03-03T22:55:35.143Z,99001.23
2019-03-03T22:58:02.776Z,98993.33
2019-03-03T23:00:43.175Z,98984.98
2019-03-03T23:03:10.814Z,98987.03
2019-03-03T23:05:38.459Z,98983.17
2019-03-03T23:08:06.102Z,98986.27
2019-03-03T23:10:34.869Z,98986.13
2019-03-03T23:13:02.652Z,98982.63
2019-03-03T23:15:30.304Z,98979.11
2019-03-03T23:17:57.963Z,98985.13
2019-03-03T23:20:25.605Z,98976.17
2019-03-03T23:22:53.239Z,98979.69
2019-03-03T23:25:20.891Z,98969.83
2019-03-03T23:27:48.534Z,98976.33
2019-03-03T23:30:16.183Z,98979.05
2019-03-03T23:32:43.822Z,98975.83
2019-03-03T23:35:11.481Z,98977.48
2019-03-03T23:37:39.133Z,98975.75
2019-03-03T23:40:06.781Z,98974.56
2019-03-03T23:42:34.428Z,98964.30
2019-03-03T23:45:02.075Z,98959.94
2019-03-03T23:47:29.711Z,98951.39
2019-03-03T23:49:57.367Z,98952.63
2019-03-03T23:54:51.612Z,98940.03
2019-03-03T23:57:19.260Z,98939.61
